Lady Washington — WAA2820 — position and weather

sailwx.info

Track history (hours):
 
Tides and Currents Weather Stations Pressure Air Temp Water Temp Dewpoint Dewpoint Depression Visibility Wind Speed Wind Dir Waves Ship Positions

Lady Washington (United States)

Ship's website: http://www.historicalseaport.org/LadyWashington.htm

Owner: GRAYS HARBOR HISTORICAL SEAPORT AUTHORIT, ABERDEEN, WA. More information available from US FCC via Universal Licensing System and Coast Guard Vessel Documentation Center.

Last reported at 2018-Nov-07 08:36 UTC. Time now 2018-Dec-12 04:55 UTC.
Position N 36°57' W 122°30'.
Warning: this ship's position is 34 days out of date.

Length 34 m.

Type: Sailing vessel. MMSI: 366945360.

Date/timePositionNaut miles runAvg speedWind from/ knotsBaromVisibWave heightAir tempDewpointWater temp
2018-Nov-07 08:36N 36°57' W 122°30'1 4.2
2018-Nov-07 08:22N 36°58' W 122°30'2 4.8
2018-Nov-07 08:00N 36°60' W 122°31'3 4.5
2018-Nov-07 07:25N 37°02' W 122°31'8 3.6
2018-Nov-07 05:15N 37°10' W 122°33'11 1.9
2018-Nov-06 23:28N 37°21' W 122°36'6 4.4
2018-Nov-06 22:00N 37°26' W 122°31'1 2.7
2018-Nov-06 21:30N 37°27' W 122°30'1 2.2
2018-Nov-06 21:03N 37°28' W 122°30'0 2.8
2018-Nov-06 21:00N 37°28' W 122°29'2 3.2
2018-Nov-06 20:29N 37°30' W 122°29'0 0.5
2018-Nov-06 20:01N 37°30' W 122°29'0 0.0
2018-Nov-06 19:58N 37°30' W 122°29'0 0.0
2018-Nov-06 19:28N 37°30' W 122°29'0 0.2
2018-Nov-06 19:01N 37°30' W 122°29'0 0.0
2018-Nov-06 18:58N 37°30' W 122°29'0 0.0
2018-Nov-06 18:28N 37°30' W 122°29'0 0.0
2018-Nov-06 18:01N 37°30' W 122°29'0 0.0
2018-Nov-06 17:58N 37°30' W 122°29'0 0.0
2018-Nov-06 17:28N 37°30' W 122°29'0 0.0
2018-Nov-06 17:01N 37°30' W 122°29'0 0.0
2018-Nov-06 16:58N 37°30' W 122°29'0 0.0
2018-Nov-06 16:28N 37°30' W 122°29'0 0.0
2018-Nov-06 16:01N 37°30' W 122°29'0 0.0
2018-Nov-06 15:58N 37°30' W 122°29'0 0.0
2018-Nov-06 15:28N 37°30' W 122°29'0 0.0
2018-Nov-06 15:01N 37°30' W 122°29'0 0.0
2018-Nov-06 14:58N 37°30' W 122°29'0 0.0
2018-Nov-06 14:28N 37°30' W 122°29'0 0.0
2018-Nov-06 14:01N 37°30' W 122°29'0 0.0
2018-Nov-06 13:58N 37°30' W 122°29'0 0.0
2018-Nov-06 13:28N 37°30' W 122°29'0 0.0
2018-Nov-06 13:01N 37°30' W 122°29'0 0.0
2018-Nov-06 12:58N 37°30' W 122°29'0 0.0
2018-Nov-06 12:28N 37°30' W 122°29'0 0.0
2018-Nov-06 12:01N 37°30' W 122°29'0 0.0
2018-Nov-06 11:58N 37°30' W 122°29'0 0.0
2018-Nov-06 11:28N 37°30' W 122°29'0 0.0
2018-Nov-06 11:01N 37°30' W 122°29'0 0.0
2018-Nov-06 10:58N 37°30' W 122°29'0 0.0
2018-Nov-06 10:28N 37°30' W 122°29'0 0.0
2018-Nov-06 10:01N 37°30' W 122°29'0 0.0
2018-Nov-06 09:58N 37°30' W 122°29'0 0.0
2018-Nov-06 09:28N 37°30' W 122°29'0 0.0
2018-Nov-06 09:01N 37°30' W 122°29'0 0.0
2018-Nov-06 08:58N 37°30' W 122°29'0 0.0
2018-Nov-06 08:28N 37°30' W 122°29'0 0.0
2018-Nov-06 08:01N 37°30' W 122°29'0 0.0
2018-Nov-06 07:58N 37°30' W 122°29'0 0.0
2018-Nov-06 07:28N 37°30' W 122°29'0 0.0
2018-Nov-06 07:01N 37°30' W 122°29'0 0.0
2018-Nov-06 06:58N 37°30' W 122°29'0 0.0
2018-Nov-06 06:28N 37°30' W 122°29'0 0.0
2018-Nov-06 06:01N 37°30' W 122°29'0 0.0
2018-Nov-06 05:58N 37°30' W 122°29'0 0.0
2018-Nov-06 05:28N 37°30' W 122°29'0 0.0
2018-Nov-06 05:01N 37°30' W 122°29'0 0.0
2018-Nov-06 04:58N 37°30' W 122°29'0 0.0
2018-Nov-06 04:28N 37°30' W 122°29'0 0.0
2018-Nov-06 04:01N 37°30' W 122°29'0 0.0
2018-Nov-06 03:58N 37°30' W 122°29'0 0.0
2018-Nov-06 03:28N 37°30' W 122°29'0 0.0
2018-Nov-06 03:01N 37°30' W 122°29'0 0.0
2018-Nov-06 02:58N 37°30' W 122°29'0 0.0
2018-Nov-06 02:28N 37°30' W 122°29'0 0.0
2018-Nov-06 02:01N 37°30' W 122°29'0 0.0
2018-Nov-06 01:58N 37°30' W 122°29'0 0.0
2018-Nov-06 01:28N 37°30' W 122°29'0 0.0
2018-Nov-06 00:58N 37°30' W 122°29'0 0.0
2018-Nov-05 23:28N 37°30' W 122°29'0 0.0
2018-Nov-05 23:01N 37°30' W 122°29'0 0.0
2018-Nov-05 22:58N 37°30' W 122°29'0 0.0
2018-Nov-05 22:28N 37°30' W 122°29'0 0.0
2018-Nov-05 21:46N 37°30' W 122°29'0 0.0
2018-Nov-05 21:28N 37°30' W 122°29'0 0.0
2018-Nov-05 21:01N 37°30' W 122°29'0 0.0
2018-Nov-05 20:58N 37°30' W 122°29'0 0.0
2018-Nov-05 20:28N 37°30' W 122°29'0 0.0
2018-Nov-05 20:01N 37°30' W 122°29'0 0.0
2018-Nov-05 19:58N 37°30' W 122°29'0 0.0
2018-Nov-05 19:28N 37°30' W 122°29'0 0.0
2018-Nov-05 19:01N 37°30' W 122°29'0 0.0
2018-Nov-05 18:58N 37°30' W 122°29'0 0.0
2018-Nov-05 18:28N 37°30' W 122°29'0 0.0
2018-Nov-05 18:01N 37°30' W 122°29'0 0.0
2018-Nov-05 17:58N 37°30' W 122°29'0 0.0
2018-Nov-05 17:30N 37°30' W 122°29'0 0.0
2018-Nov-05 17:02N 37°30' W 122°29'0 0.0
2018-Nov-05 16:59N 37°30' W 122°29'0 0.0
2018-Nov-05 16:29N 37°30' W 122°29'0 0.0
2018-Nov-05 16:02N 37°30' W 122°29'0 0.0
2018-Nov-05 15:59N 37°30' W 122°29'0 0.0
2018-Nov-05 15:29N 37°30' W 122°29'0 0.0
2018-Nov-05 15:02N 37°30' W 122°29'0 0.0
2018-Nov-05 14:59N 37°30' W 122°29'0 0.0
2018-Nov-05 14:29N 37°30' W 122°29'0 0.0
2018-Nov-05 14:02N 37°30' W 122°29'0 0.0
2018-Nov-05 13:29N 37°30' W 122°29'0 0.0
2018-Nov-05 13:02N 37°30' W 122°29'0 0.0
2018-Nov-05 12:59N 37°30' W 122°29'0 0.0
2018-Nov-05 12:29N 37°30' W 122°29'0 0.0
2018-Nov-05 12:02N 37°30' W 122°29'0 0.0
2018-Nov-05 11:59N 37°30' W 122°29'0 0.0
2018-Nov-05 11:29N 37°30' W 122°29'0 0.0
2018-Nov-05 11:02N 37°30' W 122°29'0 0.0
2018-Nov-05 10:59N 37°30' W 122°29'0 0.0
2018-Nov-05 10:29N 37°30' W 122°29'0 0.0
2018-Nov-05 10:02N 37°30' W 122°29'0 0.0
2018-Nov-05 09:59N 37°30' W 122°29'0 0.0
2018-Nov-05 09:29N 37°30' W 122°29'0 0.0
2018-Nov-05 09:02N 37°30' W 122°29'0 0.0
2018-Nov-05 08:59N 37°30' W 122°29'0 0.0
2018-Nov-05 08:29N 37°30' W 122°29'0 0.0
2018-Nov-05 08:02N 37°30' W 122°29'0 0.0
2018-Nov-05 07:59N 37°30' W 122°29'0 0.0
2018-Nov-05 07:29N 37°30' W 122°29'0 0.0
2018-Nov-05 07:02N 37°30' W 122°29'0 0.0
2018-Nov-05 06:59N 37°30' W 122°29'0 0.0
2018-Nov-05 06:29N 37°30' W 122°29'0 0.0
2018-Nov-05 06:02N 37°30' W 122°29'0 0.0
2018-Nov-05 05:59N 37°30' W 122°29'0 0.0
2018-Nov-05 05:29N 37°30' W 122°29'0 0.0
2018-Nov-05 05:02N 37°30' W 122°29'0 0.0
2018-Nov-05 04:59N 37°30' W 122°29'0 0.0
2018-Nov-05 04:29N 37°30' W 122°29'0 0.0
2018-Nov-05 04:02N 37°30' W 122°29'0 0.0
2018-Nov-05 03:59N 37°30' W 122°29'0 0.0
2018-Nov-05 03:29N 37°30' W 122°29'0 0.0
2018-Nov-05 03:02N 37°30' W 122°29'0 0.0
2018-Nov-05 02:59N 37°30' W 122°29'0 0.0
2018-Nov-05 02:29N 37°30' W 122°29'0 0.0
2018-Nov-05 02:02N 37°30' W 122°29'0 0.0
2018-Nov-05 01:59N 37°30' W 122°29'0 0.0
2018-Nov-05 01:29N 37°30' W 122°29'0 0.0
2018-Nov-05 01:02N 37°30' W 122°29'0 0.0
2018-Nov-05 00:59N 37°30' W 122°29'0 0.2
2018-Nov-05 00:30N 37°30' W 122°29'1 2.2
2018-Nov-05 00:03N 37°29' W 122°29'0 1.6
2018-Nov-05 00:00N 37°29' W 122°29'1 1.6
2018-Nov-04 23:30N 37°28' W 122°29'1 2.2
2018-Nov-04 23:03N 37°29' W 122°29'0 2.8
2018-Nov-04 23:00N 37°29' W 122°29'0 0.8
2018-Nov-04 22:28N 37°30' W 122°29'0 0.7
2018-Nov-04 22:03N 37°30' W 122°29'0 0.7
2018-Nov-04 21:58N 37°30' W 122°29'0 0.0
2018-Nov-04 21:28N 37°30' W 122°29'0 0.0
2018-Nov-04 21:01N 37°30' W 122°29'0 0.0
2018-Nov-04 20:58N 37°30' W 122°29'0 0.0
2018-Nov-04 20:28N 37°30' W 122°29'0 0.0
2018-Nov-04 20:01N 37°30' W 122°29'0 0.0
2018-Nov-04 19:58N 37°30' W 122°29'0 0.0
2018-Nov-04 19:28N 37°30' W 122°29'0 0.0
2018-Nov-04 19:01N 37°30' W 122°29'0 0.0
2018-Nov-04 18:58N 37°30' W 122°29'0 0.0
2018-Nov-04 18:28N 37°30' W 122°29'0 0.0
2018-Nov-04 18:01N 37°30' W 122°29'0 0.0
2018-Nov-04 17:58N 37°30' W 122°29'0 0.0
2018-Nov-04 17:28N 37°30' W 122°29'0 0.0
2018-Nov-04 16:58N 37°30' W 122°29'0 0.0
2018-Nov-04 16:28N 37°30' W 122°29'0 0.0
2018-Nov-04 16:01N 37°30' W 122°29'0 0.0
2018-Nov-04 15:58N 37°30' W 122°29'0 0.0
2018-Nov-04 15:28N 37°30' W 122°29'0 0.0
2018-Nov-04 15:03N 37°30' W 122°29'0 0.0
2018-Nov-04 14:59N 37°30' W 122°29'0 0.0
2018-Nov-04 14:29N 37°30' W 122°29'0 0.0
2018-Nov-04 14:02N 37°30' W 122°29'0 0.0
2018-Nov-04 13:59N 37°30' W 122°29'0 0.0
2018-Nov-04 13:29N 37°30' W 122°29'0 0.0
2018-Nov-04 13:02N 37°30' W 122°29'0 0.0
2018-Nov-04 12:59N 37°30' W 122°29'0 0.0
2018-Nov-04 12:29N 37°30' W 122°29'0 0.0
2018-Nov-04 12:02N 37°30' W 122°29'0 0.0
2018-Nov-04 11:59N 37°30' W 122°29'0 0.0
2018-Nov-04 11:29N 37°30' W 122°29'0 0.0
2018-Nov-04 11:02N 37°30' W 122°29'0 0.0
2018-Nov-04 10:59N 37°30' W 122°29'0 0.0
2018-Nov-04 10:29N 37°30' W 122°29'0 0.0
2018-Nov-04 10:02N 37°30' W 122°29'0 0.0
2018-Nov-04 09:59N 37°30' W 122°29'0 0.0
2018-Nov-04 09:29N 37°30' W 122°29'0 0.0
2018-Nov-04 09:02N 37°30' W 122°29'0 0.0
2018-Nov-04 08:59N 37°30' W 122°29'0 0.0
2018-Nov-04 08:29N 37°30' W 122°29'0 0.0
2018-Nov-04 08:02N 37°30' W 122°29'0 0.0
2018-Nov-04 07:59N 37°30' W 122°29'0 0.0
2018-Nov-04 07:29N 37°30' W 122°29'0 0.0
2018-Nov-04 07:02N 37°30' W 122°29'0 0.0
2018-Nov-04 06:59N 37°30' W 122°29'0 0.0
2018-Nov-04 06:29N 37°30' W 122°29'0 0.0
2018-Nov-04 06:02N 37°30' W 122°29'0 0.0
2018-Nov-04 05:59N 37°30' W 122°29'0 0.0
2018-Nov-04 05:29N 37°30' W 122°29'0 0.0
2018-Nov-04 05:02N 37°30' W 122°29'0 0.0
2018-Nov-04 04:59N 37°30' W 122°29'0 0.0
2018-Nov-04 04:29N 37°30' W 122°29'0 0.0
2018-Nov-04 04:03N 37°30' W 122°29'0 0.0
2018-Nov-04 04:00N 37°30' W 122°29'0 0.0
2018-Nov-04 03:30N 37°30' W 122°29'0 0.0
2018-Nov-04 03:03N 37°30' W 122°29'0 0.0
2018-Nov-04 03:00N 37°30' W 122°29'0 0.0
2018-Nov-04 02:30N 37°30' W 122°29'0 0.0
2018-Nov-04 02:03N 37°30' W 122°29'0 0.0
2018-Nov-04 02:00N 37°30' W 122°29'0 0.0
2018-Nov-04 01:30N 37°30' W 122°29'0 0.0
2018-Nov-04 01:03N 37°30' W 122°29'0 0.0
2018-Nov-04 01:00N 37°30' W 122°29'0 0.0
2018-Nov-04 00:30N 37°30' W 122°29'0 0.0
2018-Nov-04 00:03N 37°30' W 122°29'0 0.0
2018-Nov-04 00:00N 37°30' W 122°29'0 0.0
2018-Nov-03 23:30N 37°30' W 122°29'0 0.0
2018-Nov-03 23:03N 37°30' W 122°29'0 2.1
2018-Nov-03 23:00N 37°30' W 122°29'1 2.4
2018-Nov-03 22:30N 37°29' W 122°29'1 0.6
2018-Nov-03 20:30N 37°30' W 122°29'0 0.0
2018-Nov-03 20:03N 37°30' W 122°29'0 0.0
2018-Nov-03 20:00N 37°30' W 122°29'0 0.0
2018-Nov-03 19:29N 37°30' W 122°29'0 0.0
2018-Nov-03 19:02N 37°30' W 122°29'0 0.0
2018-Nov-03 18:59N 37°30' W 122°29'0 0.0
2018-Nov-03 18:28N 37°30' W 122°29'0 0.0
2018-Nov-03 18:01N 37°30' W 122°29'0 0.0
2018-Nov-03 17:58N 37°30' W 122°29'0 0.0
2018-Nov-03 17:28N 37°30' W 122°29'0 0.0
2018-Nov-03 17:01N 37°30' W 122°29'0 0.0
2018-Nov-03 16:58N 37°30' W 122°29'0 0.0
2018-Nov-03 16:28N 37°30' W 122°29'0 0.0
2018-Nov-03 16:01N 37°30' W 122°29'0 0.0
2018-Nov-03 15:58N 37°30' W 122°29'0 0.0
2018-Nov-03 15:28N 37°30' W 122°29'0 0.0
2018-Nov-03 15:01N 37°30' W 122°29'0 0.0
2018-Nov-03 14:58N 37°30' W 122°29'0 0.0
2018-Nov-03 14:28N 37°30' W 122°29'0 0.0
2018-Nov-03 14:01N 37°30' W 122°29'0 0.0
2018-Nov-03 13:58N 37°30' W 122°29'0 0.0
2018-Nov-03 13:28N 37°30' W 122°29'0 0.0
2018-Nov-03 13:01N 37°30' W 122°29'0 0.0
2018-Nov-03 12:58N 37°30' W 122°29'0 0.0
2018-Nov-03 12:28N 37°30' W 122°29'0 0.0
2018-Nov-03 12:01N 37°30' W 122°29'0 0.0
2018-Nov-03 11:58N 37°30' W 122°29'0 0.0
2018-Nov-03 11:28N 37°30' W 122°29'0 0.0
2018-Nov-03 11:01N 37°30' W 122°29'0 0.0
2018-Nov-03 10:58N 37°30' W 122°29'0 0.0
2018-Nov-03 10:28N 37°30' W 122°29'0 0.0
2018-Nov-03 10:01N 37°30' W 122°29'0 0.0
2018-Nov-03 09:58N 37°30' W 122°29'0 0.0
2018-Nov-03 09:28N 37°30' W 122°29'0 0.0
2018-Nov-03 09:01N 37°30' W 122°29'0 0.0
2018-Nov-03 08:58N 37°30' W 122°29'0 0.0
2018-Nov-03 08:28N 37°30' W 122°29'0 0.0
2018-Nov-03 08:01N 37°30' W 122°29'0 0.0
2018-Nov-03 07:58N 37°30' W 122°29'0 0.0
2018-Nov-03 07:28N 37°30' W 122°29'0 0.0
2018-Nov-03 07:01N 37°30' W 122°29'0 0.0
2018-Nov-03 06:58N 37°30' W 122°29'0 0.0
2018-Nov-03 06:28N 37°30' W 122°29'0 0.0
2018-Nov-03 06:01N 37°30' W 122°29'0 0.0
2018-Nov-03 05:58N 37°30' W 122°29'0 0.0
2018-Nov-03 05:28N 37°30' W 122°29'0 0.0
2018-Nov-03 05:01N 37°30' W 122°29'0 0.0
2018-Nov-03 04:58N 37°30' W 122°29'0 0.0
2018-Nov-03 04:28N 37°30' W 122°29'0 0.0
2018-Nov-03 04:04N 37°30' W 122°29'0 0.0
2018-Nov-03 03:58N 37°30' W 122°29'0 0.0
2018-Nov-03 03:28N 37°30' W 122°29'0 0.0
2018-Nov-03 03:01N 37°30' W 122°29'0 0.0
2018-Nov-03 02:58N 37°30' W 122°29'0 0.0
2018-Nov-03 02:28N 37°30' W 122°29'0 0.0
2018-Nov-03 02:01N 37°30' W 122°29'0 0.0
2018-Nov-03 01:58N 37°30' W 122°29'0 0.0
2018-Nov-03 01:28N 37°30' W 122°29'0 0.0
2018-Nov-03 01:01N 37°30' W 122°29'0 0.0
2018-Nov-03 00:58N 37°30' W 122°29'0 0.0
2018-Nov-03 00:28N 37°30' W 122°29'0 0.0
2018-Nov-03 00:02N 37°30' W 122°29'0 0.0
2018-Nov-02 23:59N 37°30' W 122°29'0 0.0
2018-Nov-02 23:29N 37°30' W 122°29'0 0.0
2018-Nov-02 23:02N 37°30' W 122°29'0 0.0
2018-Nov-02 22:59N 37°30' W 122°29'0 0.0
2018-Nov-02 22:29N 37°30' W 122°29'0 0.0
2018-Nov-02 21:59N 37°30' W 122°29'0 0.0
2018-Nov-02 21:29N 37°30' W 122°29'0 0.0
2018-Nov-02 21:02N 37°30' W 122°29'0 0.0
2018-Nov-02 20:59N 37°30' W 122°29'0 0.0
2018-Nov-02 20:29N 37°30' W 122°29'0 0.0
2018-Nov-02 20:02N 37°30' W 122°29'0 0.0
2018-Nov-02 19:59N 37°30' W 122°29'0 0.0
2018-Nov-02 19:29N 37°30' W 122°29'0 0.0
2018-Nov-02 19:02N 37°30' W 122°29'0 0.0
2018-Nov-02 18:59N 37°30' W 122°29'0 0.0
2018-Nov-02 18:30N 37°30' W 122°29'0 0.0
2018-Nov-02 18:03N 37°30' W 122°29'0 0.0
2018-Nov-02 18:00N 37°30' W 122°29'0 0.0
2018-Nov-02 17:29N 37°30' W 122°29'0 0.0
2018-Nov-02 17:02N 37°30' W 122°29'0 0.0
2018-Nov-02 16:59N 37°30' W 122°29'0 0.0
2018-Nov-02 16:27N 37°30' W 122°29'0 0.0
2018-Nov-02 16:03N 37°30' W 122°29'0 0.0
2018-Nov-02 16:00N 37°30' W 122°29'0 0.0
2018-Nov-02 15:30N 37°30' W 122°29'0 0.0
2018-Nov-02 15:03N 37°30' W 122°29'0 0.0
2018-Nov-02 15:00N 37°30' W 122°29'0 0.0
2018-Nov-02 14:30N 37°30' W 122°29'0 0.0
2018-Nov-02 14:00N 37°30' W 122°29'0 0.0
2018-Nov-02 13:30N 37°30' W 122°29'0 0.0
2018-Nov-02 13:03N 37°30' W 122°29'0 0.0
2018-Nov-02 13:00N 37°30' W 122°29'0 0.0
2018-Nov-02 12:30N 37°30' W 122°29'0 0.0
2018-Nov-02 12:03N 37°30' W 122°29'0 0.0
2018-Nov-02 12:00N 37°30' W 122°29'0 0.0
2018-Nov-02 11:30N 37°30' W 122°29'0 0.0
2018-Nov-02 11:03N 37°30' W 122°29'0 0.0
2018-Nov-02 11:00N 37°30' W 122°29'0 0.0
2018-Nov-02 10:30N 37°30' W 122°29'0 0.0
2018-Nov-02 10:03N 37°30' W 122°29'0 0.0
2018-Nov-02 10:00N 37°30' W 122°29'0 0.0
2018-Nov-02 09:30N 37°30' W 122°29'0 0.0
2018-Nov-02 09:03N 37°30' W 122°29'0 0.0
2018-Nov-02 09:00N 37°30' W 122°29'0 0.0
2018-Nov-02 08:30N 37°30' W 122°29'0 0.0
2018-Nov-02 08:03N 37°30' W 122°29'0 0.0
2018-Nov-02 08:00N 37°30' W 122°29'0 0.0
2018-Nov-02 07:30N 37°30' W 122°29'0 0.0
2018-Nov-02 07:03N 37°30' W 122°29'0 0.0
2018-Nov-02 07:00N 37°30' W 122°29'0 0.0
2018-Nov-02 06:30N 37°30' W 122°29'0 0.0
2018-Nov-02 06:03N 37°30' W 122°29'0 0.0
2018-Nov-02 06:00N 37°30' W 122°29'0 0.0
2018-Nov-02 05:30N 37°30' W 122°29'0 0.0
2018-Nov-02 05:03N 37°30' W 122°29'0 0.0
2018-Nov-02 05:00N 37°30' W 122°29'0 0.0
2018-Nov-02 04:30N 37°30' W 122°29'0 0.0
2018-Nov-02 04:03N 37°30' W 122°29'0 0.0
2018-Nov-02 04:00N 37°30' W 122°29'0 0.0
2018-Nov-02 03:30N 37°30' W 122°29'0 0.0
2018-Nov-02 03:03N 37°30' W 122°29'0 0.0
2018-Nov-02 03:00N 37°30' W 122°29'0 0.0
2018-Nov-02 02:30N 37°30' W 122°29'0 0.0
2018-Nov-02 02:03N 37°30' W 122°29'0 0.0
2018-Nov-02 02:00N 37°30' W 122°29'0 0.0
2018-Nov-02 01:30N 37°30' W 122°29'0 0.0
2018-Nov-02 01:03N 37°30' W 122°29'0 0.0
2018-Nov-02 01:00N 37°30' W 122°29'0 0.0
2018-Nov-02 00:54N 37°30' W 122°29'0 0.0
2018-Nov-02 00:36N 37°30' W 122°29'0 0.0
2018-Nov-02 00:27N 37°30' W 122°29'0 0.0
2018-Nov-02 00:00N 37°30' W 122°29'0 0.0
2018-Nov-01 23:30N 37°30' W 122°29'0 0.0
2018-Nov-01 23:03N 37°30' W 122°29'0 0.0
2018-Nov-01 23:00N 37°30' W 122°29'0 0.0
2018-Nov-01 22:30N 37°30' W 122°29'1 2.0
2018-Nov-01 22:03N 37°29' W 122°29'0 3.0
2018-Nov-01 22:00N 37°29' W 122°29'2 3.9
2018-Nov-01 21:30N 37°28' W 122°30'0 0.8
2018-Nov-01 21:03N 37°27' W 122°31'0 2.8
2018-Nov-01 21:00N 37°27' W 122°31'1 2.9
2018-Nov-01 20:30N 37°28' W 122°29'1 3.1
2018-Nov-01 20:02N 37°30' W 122°29'0 0.4
2018-Nov-01 19:59N 37°30' W 122°29'0 0.6
2018-Nov-01 19:29N 37°30' W 122°29'0 0.0
2018-Nov-01 19:02N 37°30' W 122°29'0 0.0
2018-Nov-01 18:59N 37°30' W 122°29'0 0.0
2018-Nov-01 18:29N 37°30' W 122°29'0 0.0
2018-Nov-01 18:02N 37°30' W 122°29'0 0.0
2018-Nov-01 17:59N 37°30' W 122°29'0 0.0
2018-Nov-01 17:29N 37°30' W 122°29'0 0.0
2018-Nov-01 17:02N 37°30' W 122°29'0 0.0
2018-Nov-01 16:59N 37°30' W 122°29'0 0.0
2018-Nov-01 16:29N 37°30' W 122°29'0 0.0
2018-Nov-01 16:02N 37°30' W 122°29'0 0.0
2018-Nov-01 15:59N 37°30' W 122°29'0 0.0
2018-Nov-01 15:29N 37°30' W 122°29'0 0.0
2018-Nov-01 15:02N 37°30' W 122°29'0 0.0
2018-Nov-01 14:59N 37°30' W 122°29'0 0.0
2018-Nov-01 14:29N 37°30' W 122°29'0 0.0
2018-Nov-01 13:59N 37°30' W 122°29'0 0.0
2018-Nov-01 13:29N 37°30' W 122°29'0 0.0
2018-Nov-01 13:02N 37°30' W 122°29'0 0.0
2018-Nov-01 12:59N 37°30' W 122°29'0 0.0
2018-Nov-01 12:29N 37°30' W 122°29'0 0.0
2018-Nov-01 12:02N 37°30' W 122°29'0 0.0
2018-Nov-01 11:59N 37°30' W 122°29'0 0.0
2018-Nov-01 11:29N 37°30' W 122°29'0 0.0
2018-Nov-01 11:02N 37°30' W 122°29'0 0.0
2018-Nov-01 10:59N 37°30' W 122°29'0 0.0
2018-Nov-01 10:29N 37°30' W 122°29'0 0.0
2018-Nov-01 10:02N 37°30' W 122°29'0 0.0
2018-Nov-01 09:59N 37°30' W 122°29'0 0.0
2018-Nov-01 09:29N 37°30' W 122°29'0 0.0
2018-Nov-01 09:02N 37°30' W 122°29'0 0.0
2018-Nov-01 08:59N 37°30' W 122°29'0 0.0
2018-Nov-01 08:29N 37°30' W 122°29'0 0.0
2018-Nov-01 08:02N 37°30' W 122°29'0 0.0
2018-Nov-01 07:59N 37°30' W 122°29'0 0.0
2018-Nov-01 07:29N 37°30' W 122°29'0 0.0
2018-Nov-01 07:02N 37°30' W 122°29'0 0.0
2018-Nov-01 06:59N 37°30' W 122°29'0 0.0
2018-Nov-01 06:29N 37°30' W 122°29'0 0.0
2018-Nov-01 06:02N 37°30' W 122°29'0 0.0
2018-Nov-01 05:59N 37°30' W 122°29'0 0.0
2018-Nov-01 05:29N 37°30' W 122°29'0 0.0
2018-Nov-01 05:02N 37°30' W 122°29'0 0.0
2018-Nov-01 04:59N 37°30' W 122°29'0 0.0
2018-Nov-01 04:29N 37°30' W 122°29'0 0.0
2018-Nov-01 04:02N 37°30' W 122°29'0 0.0
2018-Nov-01 03:59N 37°30' W 122°29'0 0.0
2018-Nov-01 03:29N 37°30' W 122°29'0 0.0
2018-Nov-01 03:02N 37°30' W 122°29'0 0.0
2018-Nov-01 02:59N 37°30' W 122°29'0 0.0
2018-Nov-01 02:29N 37°30' W 122°29'0 0.0
2018-Nov-01 02:02N 37°30' W 122°29'0 0.0
2018-Nov-01 01:59N 37°30' W 122°29'0 0.0
2018-Nov-01 01:29N 37°30' W 122°29'0 0.0
2018-Nov-01 01:02N 37°30' W 122°29'0 0.0
2018-Nov-01 00:59N 37°30' W 122°29'0 0.0
2018-Nov-01 00:29N 37°30' W 122°29'0 0.0
2018-Nov-01 00:02N 37°30' W 122°29'0 0.0
2018-Oct-31 23:59N 37°30' W 122°29'0 0.0
2018-Oct-31 23:29N 37°30' W 122°29'0 0.0
2018-Oct-31 23:02N 37°30' W 122°29'0 0.0
2018-Oct-31 22:59N 37°30' W 122°29'0 0.0
2018-Oct-31 22:29N 37°30' W 122°29'0 0.0
2018-Oct-31 22:02N 37°30' W 122°29'0 0.0
2018-Oct-31 21:59N 37°30' W 122°29'0 0.0
2018-Oct-31 21:29N 37°30' W 122°29'0 0.0
2018-Oct-31 21:02N 37°30' W 122°29'0 0.0
2018-Oct-31 20:59N 37°30' W 122°29'0 0.0
2018-Oct-31 20:29N 37°30' W 122°29'0 0.0
2018-Oct-31 20:02N 37°30' W 122°29'0 0.0
2018-Oct-31 19:59N 37°30' W 122°29'0 0.0
2018-Oct-31 19:29N 37°30' W 122°29'0 0.0
2018-Oct-31 19:02N 37°30' W 122°29'0 0.0
2018-Oct-31 18:59N 37°30' W 122°29'0 0.0
2018-Oct-31 18:29N 37°30' W 122°29'0 0.2
2018-Oct-31 18:04N 37°30' W 122°29'0 1.9
2018-Oct-31 18:00N 37°30' W 122°29'2 3.3
2018-Oct-31 17:30N 37°29' W 122°28'2 3.4
2018-Oct-31 17:03N 37°30' W 122°29'0 0.7
2018-Oct-31 16:58N 37°30' W 122°29'0 0.8
2018-Oct-31 16:28N 37°30' W 122°29'0 0.0
2018-Oct-31 16:01N 37°30' W 122°29'0 0.0
2018-Oct-31 15:58N 37°30' W 122°29'0 0.0
2018-Oct-31 15:28N 37°30' W 122°29'0 0.0
2018-Oct-31 15:01N 37°30' W 122°29'0 0.0
2018-Oct-31 14:58N 37°30' W 122°29'0 0.0
2018-Oct-31 14:01N 37°30' W 122°29'0 0.0
2018-Oct-31 13:58N 37°30' W 122°29'0 0.0
2018-Oct-31 13:28N 37°30' W 122°29'0 0.0
2018-Oct-31 13:01N 37°30' W 122°29'0 0.0
2018-Oct-31 12:58N 37°30' W 122°29'0 0.0
2018-Oct-31 12:28N 37°30' W 122°29'0 0.0
2018-Oct-31 12:01N 37°30' W 122°29'0 0.0
2018-Oct-31 11:58N 37°30' W 122°29'0 0.0
2018-Oct-31 11:28N 37°30' W 122°29'0 0.0
2018-Oct-31 10:58N 37°30' W 122°29'0 0.0
2018-Oct-31 10:28N 37°30' W 122°29'0 0.0
2018-Oct-31 10:01N 37°30' W 122°29'0 0.0
2018-Oct-31 09:58N 37°30' W 122°29'0 0.0
2018-Oct-31 09:28N 37°30' W 122°29'0 0.0
2018-Oct-31 09:01N 37°30' W 122°29'0 0.0
2018-Oct-31 08:58N 37°30' W 122°29'0 0.0
2018-Oct-31 08:28N 37°30' W 122°29'0 0.0
2018-Oct-31 08:01N 37°30' W 122°29'0 0.0
2018-Oct-31 07:58N 37°30' W 122°29'0 0.0
2018-Oct-31 07:28N 37°30' W 122°29'0 0.0
2018-Oct-31 07:01N 37°30' W 122°29'0 0.0
2018-Oct-31 06:58N 37°30' W 122°29'0 0.0
2018-Oct-31 06:28N 37°30' W 122°29'0 0.0
2018-Oct-31 06:01N 37°30' W 122°29'0 0.0
2018-Oct-31 05:58N 37°30' W 122°29'0 0.0
2018-Oct-31 05:28N 37°30' W 122°29'0 0.0
2018-Oct-31 05:01N 37°30' W 122°29'0 0.0
2018-Oct-31 04:58N 37°30' W 122°29'0 0.0
2018-Oct-31 04:28N 37°30' W 122°29'0 0.0
2018-Oct-31 04:01N 37°30' W 122°29'0 0.0
2018-Oct-31 03:58N 37°30' W 122°29'0 0.0
2018-Oct-31 03:28N 37°30' W 122°29'0 0.0
2018-Oct-31 03:01N 37°30' W 122°29'0 0.0
2018-Oct-31 02:58N 37°30' W 122°29'0 0.0
2018-Oct-31 02:28N 37°30' W 122°29'0 0.0
2018-Oct-31 02:01N 37°30' W 122°29'0 0.0
2018-Oct-31 01:58N 37°30' W 122°29'0 0.0
2018-Oct-31 01:28N 37°30' W 122°29'0 0.0
2018-Oct-31 01:01N 37°30' W 122°29'0 0.0
2018-Oct-31 00:58N 37°30' W 122°29'0 0.0
2018-Oct-31 00:28N 37°30' W 122°29'0 0.0
2018-Oct-31 00:01N 37°30' W 122°29'0 0.0
2018-Oct-30 23:58N 37°30' W 122°29'0 0.0
2018-Oct-30 23:28N 37°30' W 122°29'0 0.0
2018-Oct-30 23:01N 37°30' W 122°29'0 0.0
2018-Oct-30 22:58N 37°30' W 122°29'0 0.0
2018-Oct-30 22:28N 37°30' W 122°29'0 0.0
2018-Oct-30 22:01N 37°30' W 122°29'0 0.0
2018-Oct-30 21:58N 37°30' W 122°29'0 0.0
2018-Oct-30 21:28N 37°30' W 122°29'0 0.0
2018-Oct-30 21:01N 37°30' W 122°29'0 0.0
2018-Oct-30 20:58N 37°30' W 122°29'0 0.0
2018-Oct-30 20:28N 37°30' W 122°29'0 0.0
2018-Oct-30 20:01N 37°30' W 122°29'0 0.0
2018-Oct-30 19:58N 37°30' W 122°29'0 0.0
2018-Oct-30 19:28N 37°30' W 122°29'0 0.0
2018-Oct-30 19:01N 37°30' W 122°29'0 0.0
2018-Oct-30 18:58N 37°30' W 122°29'1 2.8
2018-Oct-30 18:30N 37°29' W 122°29'0 0.5
2018-Oct-30 18:03N 37°29' W 122°29'0 3.6
2018-Oct-30 18:00N 37°29' W 122°29'1 1.6
2018-Oct-30 17:28N 37°30' W 122°29'0 0.0
2018-Oct-30 17:01N 37°30' W 122°29'0 0.0
2018-Oct-30 16:58N 37°30' W 122°29'0 0.0
2018-Oct-30 16:28N 37°30' W 122°29'0 0.0
2018-Oct-30 16:01N 37°30' W 122°29'0 0.0
2018-Oct-30 15:58N 37°30' W 122°29'0 0.0
2018-Oct-30 15:28N 37°30' W 122°29'0 0.0
2018-Oct-30 15:01N 37°30' W 122°29'0 0.0
2018-Oct-30 14:58N 37°30' W 122°29'0 0.0
2018-Oct-30 14:01N 37°30' W 122°29'0 0.0
2018-Oct-30 13:28N 37°30' W 122°29'0 0.0
2018-Oct-30 13:01N 37°30' W 122°29'0 0.0
2018-Oct-30 12:58N 37°30' W 122°29'0 0.0
2018-Oct-30 12:28N 37°30' W 122°29'0 0.0
2018-Oct-30 12:01N 37°30' W 122°29'0 0.0
2018-Oct-30 11:58N 37°30' W 122°29'0 0.0
2018-Oct-30 11:28N 37°30' W 122°29'0 0.0
2018-Oct-30 11:01N 37°30' W 122°29'0 0.0
2018-Oct-30 10:58N 37°30' W 122°29'0 0.0
2018-Oct-30 10:25N 37°30' W 122°29'0 0.0
2018-Oct-30 10:03N 37°30' W 122°29'0 0.0
2018-Oct-30 10:00N 37°30' W 122°29'0 0.0
2018-Oct-30 09:30N 37°30' W 122°29'0 0.0
2018-Oct-30 09:03N 37°30' W 122°29'0 0.0
2018-Oct-30 09:00N 37°30' W 122°29'0 0.0
2018-Oct-30 08:30N 37°30' W 122°29'0 0.0
2018-Oct-30 08:03N 37°30' W 122°29'0 0.0
2018-Oct-30 08:00N 37°30' W 122°29'0 0.0
2018-Oct-30 07:30N 37°30' W 122°29'0 0.0
2018-Oct-30 07:03N 37°30' W 122°29'0 0.0
2018-Oct-30 07:00N 37°30' W 122°29'0 0.0
2018-Oct-30 06:30N 37°30' W 122°29'0 0.0
2018-Oct-30 06:03N 37°30' W 122°29'0 0.0
2018-Oct-30 06:00N 37°30' W 122°29'0 0.0
2018-Oct-30 05:30N 37°30' W 122°29'0 0.0
2018-Oct-30 05:03N 37°30' W 122°29'0 0.0
2018-Oct-30 05:00N 37°30' W 122°29'0 0.0
2018-Oct-30 04:30N 37°30' W 122°29'0 0.0
2018-Oct-30 04:03N 37°30' W 122°29'0 0.0
2018-Oct-30 04:00N 37°30' W 122°29'0 0.0
2018-Oct-30 03:30N 37°30' W 122°29'0 0.0
2018-Oct-30 03:03N 37°30' W 122°29'0 0.0
2018-Oct-30 03:00N 37°30' W 122°29'0 0.0
2018-Oct-30 02:30N 37°30' W 122°29'0 0.0
2018-Oct-30 02:03N 37°30' W 122°29'0 0.0
2018-Oct-30 02:00N 37°30' W 122°29'0 0.0
2018-Oct-30 01:30N 37°30' W 122°29'0 0.0
2018-Oct-30 01:03N 37°30' W 122°29'0 0.0
2018-Oct-30 01:00N 37°30' W 122°29'0 0.0
2018-Oct-30 00:30N 37°30' W 122°29'0 0.0
2018-Oct-30 00:03N 37°30' W 122°29'0 0.0
2018-Oct-30 00:00N 37°30' W 122°29'0 0.0
2018-Oct-29 23:30N 37°30' W 122°29'0 0.0
2018-Oct-29 23:03N 37°30' W 122°29'0 0.0
2018-Oct-29 23:00N 37°30' W 122°29'0 0.0
2018-Oct-29 22:30N 37°30' W 122°29'0 0.0
2018-Oct-29 22:03N 37°30' W 122°29'0 0.0
2018-Oct-29 22:00N 37°30' W 122°29'0 0.0
2018-Oct-29 21:30N 37°30' W 122°29'0 0.0
2018-Oct-29 21:03N 37°30' W 122°29'0 0.0
2018-Oct-29 21:00N 37°30' W 122°29'0 0.0
2018-Oct-29 20:30N 37°30' W 122°29'0 0.0
2018-Oct-29 20:03N 37°30' W 122°29'0 0.0
2018-Oct-29 20:00N 37°30' W 122°29'0 0.0
2018-Oct-29 19:30N 37°30' W 122°29'0 0.0
2018-Oct-29 19:03N 37°30' W 122°29'0 0.0
2018-Oct-29 19:00N 37°30' W 122°29'0 0.0
2018-Oct-29 18:30N 37°30' W 122°29'0 0.0
2018-Oct-29 18:03N 37°30' W 122°29'0 0.0
2018-Oct-29 18:00N 37°30' W 122°29'0 0.0
2018-Oct-29 17:30N 37°30' W 122°29'0 0.0
2018-Oct-29 17:03N 37°30' W 122°29'0 0.0
2018-Oct-29 17:00N 37°30' W 122°29'0 0.0
2018-Oct-29 16:30N 37°30' W 122°29'0 0.0
2018-Oct-29 16:03N 37°30' W 122°29'0 0.0
2018-Oct-29 16:00N 37°30' W 122°29'0 0.0
2018-Oct-29 15:30N 37°30' W 122°29'0 0.0
2018-Oct-29 15:03N 37°30' W 122°29'0 0.0
2018-Oct-29 15:00N 37°30' W 122°29'0 0.0
2018-Oct-29 14:30N 37°30' W 122°29'0 0.0
2018-Oct-29 14:00N 37°30' W 122°29'0 0.0
2018-Oct-29 13:30N 37°30' W 122°29'0 0.0
2018-Oct-29 13:03N 37°30' W 122°29'0 0.0
2018-Oct-29 13:00N 37°30' W 122°29'0 0.0
2018-Oct-29 12:30N 37°30' W 122°29'0 0.0
2018-Oct-29 12:03N 37°30' W 122°29'0 0.0
2018-Oct-29 12:00N 37°30' W 122°29'0 0.0
2018-Oct-29 11:30N 37°30' W 122°29'0 0.0
2018-Oct-29 11:03N 37°30' W 122°29'0 0.0
2018-Oct-29 11:00N 37°30' W 122°29'0 0.0
2018-Oct-29 10:30N 37°30' W 122°29'0 0.0
2018-Oct-29 10:03N 37°30' W 122°29'0 0.0
2018-Oct-29 10:00N 37°30' W 122°29'0 0.0
2018-Oct-29 09:30N 37°30' W 122°29'0 0.0
2018-Oct-29 09:03N 37°30' W 122°29'0 0.0
2018-Oct-29 09:00N 37°30' W 122°29'0 0.0
2018-Oct-29 08:30N 37°30' W 122°29'0 0.0
2018-Oct-29 08:03N 37°30' W 122°29'0 0.0
2018-Oct-29 08:00N 37°30' W 122°29'0 0.0
2018-Oct-29 07:30N 37°30' W 122°29'0 0.0
2018-Oct-29 07:03N 37°30' W 122°29'0 0.0
2018-Oct-29 07:00N 37°30' W 122°29'0 0.0
2018-Oct-29 06:30N 37°30' W 122°29'0 0.0
2018-Oct-29 06:03N 37°30' W 122°29'0 0.0
2018-Oct-29 06:00N 37°30' W 122°29'0 0.0
2018-Oct-29 05:30N 37°30' W 122°29'0 0.0
2018-Oct-29 05:03N 37°30' W 122°29'0 0.0
2018-Oct-29 05:00N 37°30' W 122°29'0 0.0
2018-Oct-29 04:30N 37°30' W 122°29'0 0.0
2018-Oct-29 04:03N 37°30' W 122°29'0 0.0
2018-Oct-29 04:00N 37°30' W 122°29'0 0.0
2018-Oct-29 03:30N 37°30' W 122°29'0 0.0
2018-Oct-29 03:03N 37°30' W 122°29'0 0.0
2018-Oct-29 03:00N 37°30' W 122°29'0 0.0
2018-Oct-29 02:30N 37°30' W 122°29'0 0.0
2018-Oct-29 02:03N 37°30' W 122°29'0 0.0
2018-Oct-29 02:00N 37°30' W 122°29'0 0.0
2018-Oct-29 01:30N 37°30' W 122°29'0 0.0
2018-Oct-29 01:03N 37°30' W 122°29'0 0.0
2018-Oct-29 01:00N 37°30' W 122°29'0 0.0
2018-Oct-29 00:30N 37°30' W 122°29'0 0.0
2018-Oct-29 00:03N 37°30' W 122°29'0 0.0
2018-Oct-29 00:00N 37°30' W 122°29'0 0.0
2018-Oct-28 23:30N 37°30' W 122°29'0 0.1
2018-Oct-28 23:03N 37°30' W 122°29'0 2.3
2018-Oct-28 23:00N 37°30' W 122°29'1 2.5
2018-Oct-28 22:29N 37°29' W 122°29'1 1.7
2018-Oct-28 22:04N 37°28' W 122°29'0 3.0
2018-Oct-28 22:00N 37°28' W 122°30'2 3.5
2018-Oct-28 21:31N 37°30' W 122°29'0 0.9
2018-Oct-28 21:01N 37°30' W 122°29'0 0.0
2018-Oct-28 20:58N 37°30' W 122°29'0 0.0
2018-Oct-28 20:31N 37°30' W 122°29'0 0.0
2018-Oct-28 20:01N 37°30' W 122°29'0 0.0
2018-Oct-28 19:28N 37°30' W 122°29'0 0.0
2018-Oct-28 19:01N 37°30' W 122°29'0 0.0
2018-Oct-28 18:58N 37°30' W 122°29'0 0.0
2018-Oct-28 18:31N 37°30' W 122°29'0 0.0
2018-Oct-28 18:01N 37°30' W 122°29'0 0.0
2018-Oct-28 17:58N 37°30' W 122°29'0 0.0
2018-Oct-28 17:31N 37°30' W 122°29'0 0.0
2018-Oct-28 17:01N 37°30' W 122°29'0 0.0
2018-Oct-28 16:31N 37°30' W 122°29'0 0.0
2018-Oct-28 16:01N 37°30' W 122°29'0 0.0
2018-Oct-28 15:58N 37°30' W 122°29'0 0.0
2018-Oct-28 15:31N 37°30' W 122°29'0 0.0
2018-Oct-28 15:01N 37°30' W 122°29'0 0.1
2018-Oct-28 14:58N 37°30' W 122°29'0 0.0
2018-Oct-28 14:31N 37°30' W 122°29'0 0.0
2018-Oct-28 13:28N 37°30' W 122°29'0 0.0
2018-Oct-28 13:01N 37°30' W 122°29'0 0.0
2018-Oct-28 12:28N 37°30' W 122°29'0 0.0
2018-Oct-28 12:01N 37°30' W 122°29'0 0.0
2018-Oct-28 11:58N 37°30' W 122°29'0 0.0
2018-Oct-28 11:28N 37°30' W 122°29'0 0.0
2018-Oct-28 11:01N 37°30' W 122°29'0 0.0
2018-Oct-28 10:58N 37°30' W 122°29'0 0.0
2018-Oct-28 10:31N 37°30' W 122°29'0 0.0
2018-Oct-28 10:01N 37°30' W 122°29'0 0.0
2018-Oct-28 09:58N 37°30' W 122°29'0 0.0
2018-Oct-28 09:28N 37°30' W 122°29'0 0.0
2018-Oct-28 09:04N 37°30' W 122°29'0 0.0
2018-Oct-28 08:58N 37°30' W 122°29'  
Track history (hours):
 
Tides and Currents Weather Stations Pressure Air Temp Water Temp Dewpoint Dewpoint Depression Visibility Wind Speed Wind Dir Waves Ship Positions

Lady Washington (United States)

Ship's website: http://www.historicalseaport.org/LadyWashington.htm

Owner: GRAYS HARBOR HISTORICAL SEAPORT AUTHORIT, ABERDEEN, WA. More information available from US FCC via Universal Licensing System and Coast Guard Vessel Documentation Center.

Last reported at 2018-Nov-07 08:36 UTC. Time now 2018-Dec-12 04:55 UTC.
Position N 36°57' W 122°30'.
Warning: this ship's position is 34 days out of date.

Length 34 m.

Type: Sailing vessel. MMSI: 366945360.

Date/timePositionNaut miles runAvg speedWind from/ knotsBaromVisibWave heightAir tempDewpointWater temp
2018-Nov-07 08:36N 36°57' W 122°30'1 4.2
2018-Nov-07 08:22N 36°58' W 122°30'2 4.8
2018-Nov-07 08:00N 36°60' W 122°31'3 4.5
2018-Nov-07 07:25N 37°02' W 122°31'8 3.6
2018-Nov-07 05:15N 37°10' W 122°33'11 1.9
2018-Nov-06 23:28N 37°21' W 122°36'6 4.4
2018-Nov-06 22:00N 37°26' W 122°31'1 2.7
2018-Nov-06 21:30N 37°27' W 122°30'1 2.2
2018-Nov-06 21:03N 37°28' W 122°30'0 2.8
2018-Nov-06 21:00N 37°28' W 122°29'2 3.2
2018-Nov-06 20:29N 37°30' W 122°29'0 0.5
2018-Nov-06 20:01N 37°30' W 122°29'0 0.0
2018-Nov-06 19:58N 37°30' W 122°29'0 0.0
2018-Nov-06 19:28N 37°30' W 122°29'0 0.2
2018-Nov-06 19:01N 37°30' W 122°29'0 0.0
2018-Nov-06 18:58N 37°30' W 122°29'0 0.0
2018-Nov-06 18:28N 37°30' W 122°29'0 0.0
2018-Nov-06 18:01N 37°30' W 122°29'0 0.0
2018-Nov-06 17:58N 37°30' W 122°29'0 0.0
2018-Nov-06 17:28N 37°30' W 122°29'0 0.0
2018-Nov-06 17:01N 37°30' W 122°29'0 0.0
2018-Nov-06 16:58N 37°30' W 122°29'0 0.0
2018-Nov-06 16:28N 37°30' W 122°29'0 0.0
2018-Nov-06 16:01N 37°30' W 122°29'0 0.0
2018-Nov-06 15:58N 37°30' W 122°29'0 0.0
2018-Nov-06 15:28N 37°30' W 122°29'0 0.0
2018-Nov-06 15:01N 37°30' W 122°29'0 0.0
2018-Nov-06 14:58N 37°30' W 122°29'0 0.0
2018-Nov-06 14:28N 37°30' W 122°29'0 0.0
2018-Nov-06 14:01N 37°30' W 122°29'0 0.0
2018-Nov-06 13:58N 37°30' W 122°29'0 0.0
2018-Nov-06 13:28N 37°30' W 122°29'0 0.0
2018-Nov-06 13:01N 37°30' W 122°29'0 0.0
2018-Nov-06 12:58N 37°30' W 122°29'0 0.0
2018-Nov-06 12:28N 37°30' W 122°29'0 0.0
2018-Nov-06 12:01N 37°30' W 122°29'0 0.0
2018-Nov-06 11:58N 37°30' W 122°29'0 0.0
2018-Nov-06 11:28N 37°30' W 122°29'0 0.0
2018-Nov-06 11:01N 37°30' W 122°29'0 0.0
2018-Nov-06 10:58N 37°30' W 122°29'0 0.0
2018-Nov-06 10:28N 37°30' W 122°29'0 0.0
2018-Nov-06 10:01N 37°30' W 122°29'0 0.0
2018-Nov-06 09:58N 37°30' W 122°29'0 0.0
2018-Nov-06 09:28N 37°30' W 122°29'0 0.0
2018-Nov-06 09:01N 37°30' W 122°29'0 0.0
2018-Nov-06 08:58N 37°30' W 122°29'0 0.0
2018-Nov-06 08:28N 37°30' W 122°29'0 0.0
2018-Nov-06 08:01N 37°30' W 122°29'0 0.0
2018-Nov-06 07:58N 37°30' W 122°29'0 0.0
2018-Nov-06 07:28N 37°30' W 122°29'0 0.0
2018-Nov-06 07:01N 37°30' W 122°29'0 0.0
2018-Nov-06 06:58N 37°30' W 122°29'0 0.0
2018-Nov-06 06:28N 37°30' W 122°29'0 0.0
2018-Nov-06 06:01N 37°30' W 122°29'0 0.0
2018-Nov-06 05:58N 37°30' W 122°29'0 0.0
2018-Nov-06 05:28N 37°30' W 122°29'0 0.0
2018-Nov-06 05:01N 37°30' W 122°29'0 0.0
2018-Nov-06 04:58N 37°30' W 122°29'0 0.0
2018-Nov-06 04:28N 37°30' W 122°29'0 0.0
2018-Nov-06 04:01N 37°30' W 122°29'0 0.0
2018-Nov-06 03:58N 37°30' W 122°29'0 0.0
2018-Nov-06 03:28N 37°30' W 122°29'0 0.0
2018-Nov-06 03:01N 37°30' W 122°29'0 0.0
2018-Nov-06 02:58N 37°30' W 122°29'0 0.0
2018-Nov-06 02:28N 37°30' W 122°29'0 0.0
2018-Nov-06 02:01N 37°30' W 122°29'0 0.0
2018-Nov-06 01:58N 37°30' W 122°29'0 0.0
2018-Nov-06 01:28N 37°30' W 122°29'0 0.0
2018-Nov-06 00:58N 37°30' W 122°29'0 0.0
2018-Nov-05 23:28N 37°30' W 122°29'0 0.0
2018-Nov-05 23:01N 37°30' W 122°29'0 0.0
2018-Nov-05 22:58N 37°30' W 122°29'0 0.0
2018-Nov-05 22:28N 37°30' W 122°29'0 0.0
2018-Nov-05 21:46N 37°30' W 122°29'0 0.0
2018-Nov-05 21:28N 37°30' W 122°29'0 0.0
2018-Nov-05 21:01N 37°30' W 122°29'0 0.0
2018-Nov-05 20:58N 37°30' W 122°29'0 0.0
2018-Nov-05 20:28N 37°30' W 122°29'0 0.0
2018-Nov-05 20:01N 37°30' W 122°29'0 0.0
2018-Nov-05 19:58N 37°30' W 122°29'0 0.0
2018-Nov-05 19:28N 37°30' W 122°29'0 0.0
2018-Nov-05 19:01N 37°30' W 122°29'0 0.0
2018-Nov-05 18:58N 37°30' W 122°29'0 0.0
2018-Nov-05 18:28N 37°30' W 122°29'0 0.0
2018-Nov-05 18:01N 37°30' W 122°29'0 0.0
2018-Nov-05 17:58N 37°30' W 122°29'0 0.0
2018-Nov-05 17:30N 37°30' W 122°29'0 0.0
2018-Nov-05 17:02N 37°30' W 122°29'0 0.0
2018-Nov-05 16:59N 37°30' W 122°29'0 0.0
2018-Nov-05 16:29N 37°30' W 122°29'0 0.0
2018-Nov-05 16:02N 37°30' W 122°29'0 0.0
2018-Nov-05 15:59N 37°30' W 122°29'0 0.0
2018-Nov-05 15:29N 37°30' W 122°29'0 0.0
2018-Nov-05 15:02N 37°30' W 122°29'0 0.0
2018-Nov-05 14:59N 37°30' W 122°29'0 0.0
2018-Nov-05 14:29N 37°30' W 122°29'0 0.0
2018-Nov-05 14:02N 37°30' W 122°29'0 0.0
2018-Nov-05 13:29N 37°30' W 122°29'0 0.0
2018-Nov-05 13:02N 37°30' W 122°29'0 0.0
2018-Nov-05 12:59N 37°30' W 122°29'0 0.0
2018-Nov-05 12:29N 37°30' W 122°29'0 0.0
2018-Nov-05 12:02N 37°30' W 122°29'0 0.0
2018-Nov-05 11:59N 37°30' W 122°29'0 0.0
2018-Nov-05 11:29N 37°30' W 122°29'0 0.0
2018-Nov-05 11:02N 37°30' W 122°29'0 0.0
2018-Nov-05 10:59N 37°30' W 122°29'0 0.0
2018-Nov-05 10:29N 37°30' W 122°29'0 0.0
2018-Nov-05 10:02N 37°30' W 122°29'0 0.0
2018-Nov-05 09:59N 37°30' W 122°29'0 0.0
2018-Nov-05 09:29N 37°30' W 122°29'0 0.0
2018-Nov-05 09:02N 37°30' W 122°29'0 0.0
2018-Nov-05 08:59N 37°30' W 122°29'0 0.0
2018-Nov-05 08:29N 37°30' W 122°29'0 0.0
2018-Nov-05 08:02N 37°30' W 122°29'0 0.0
2018-Nov-05 07:59N 37°30' W 122°29'0 0.0
2018-Nov-05 07:29N 37°30' W 122°29'0 0.0
2018-Nov-05 07:02N 37°30' W 122°29'0 0.0
2018-Nov-05 06:59N 37°30' W 122°29'0 0.0
2018-Nov-05 06:29N 37°30' W 122°29'0 0.0
2018-Nov-05 06:02N 37°30' W 122°29'0 0.0
2018-Nov-05 05:59N 37°30' W 122°29'0 0.0
2018-Nov-05 05:29N 37°30' W 122°29'0 0.0
2018-Nov-05 05:02N 37°30' W 122°29'0 0.0
2018-Nov-05 04:59N 37°30' W 122°29'0 0.0
2018-Nov-05 04:29N 37°30' W 122°29'0 0.0
2018-Nov-05 04:02N 37°30' W 122°29'0 0.0
2018-Nov-05 03:59N 37°30' W 122°29'0 0.0
2018-Nov-05 03:29N 37°30' W 122°29'0 0.0
2018-Nov-05 03:02N 37°30' W 122°29'0 0.0
2018-Nov-05 02:59N 37°30' W 122°29'0 0.0
2018-Nov-05 02:29N 37°30' W 122°29'0 0.0
2018-Nov-05 02:02N 37°30' W 122°29'0 0.0
2018-Nov-05 01:59N 37°30' W 122°29'0 0.0
2018-Nov-05 01:29N 37°30' W 122°29'0 0.0
2018-Nov-05 01:02N 37°30' W 122°29'0 0.0
2018-Nov-05 00:59N 37°30' W 122°29'0 0.2
2018-Nov-05 00:30N 37°30' W 122°29'1 2.2
2018-Nov-05 00:03N 37°29' W 122°29'0 1.6
2018-Nov-05 00:00N 37°29' W 122°29'1 1.6
2018-Nov-04 23:30N 37°28' W 122°29'1 2.2
2018-Nov-04 23:03N 37°29' W 122°29'0 2.8
2018-Nov-04 23:00N 37°29' W 122°29'0 0.8
2018-Nov-04 22:28N 37°30' W 122°29'0 0.7
2018-Nov-04 22:03N 37°30' W 122°29'0 0.7
2018-Nov-04 21:58N 37°30' W 122°29'0 0.0
2018-Nov-04 21:28N 37°30' W 122°29'0 0.0
2018-Nov-04 21:01N 37°30' W 122°29'0 0.0
2018-Nov-04 20:58N 37°30' W 122°29'0 0.0
2018-Nov-04 20:28N 37°30' W 122°29'0 0.0
2018-Nov-04 20:01N 37°30' W 122°29'0 0.0
2018-Nov-04 19:58N 37°30' W 122°29'0 0.0
2018-Nov-04 19:28N 37°30' W 122°29'0 0.0
2018-Nov-04 19:01N 37°30' W 122°29'0 0.0
2018-Nov-04 18:58N 37°30' W 122°29'0 0.0
2018-Nov-04 18:28N 37°30' W 122°29'0 0.0
2018-Nov-04 18:01N 37°30' W 122°29'0 0.0
2018-Nov-04 17:58N 37°30' W 122°29'0 0.0
2018-Nov-04 17:28N 37°30' W 122°29'0 0.0
2018-Nov-04 16:58N 37°30' W 122°29'0 0.0
2018-Nov-04 16:28N 37°30' W 122°29'0 0.0
2018-Nov-04 16:01N 37°30' W 122°29'0 0.0
2018-Nov-04 15:58N 37°30' W 122°29'0 0.0
2018-Nov-04 15:28N 37°30' W 122°29'0 0.0
2018-Nov-04 15:03N 37°30' W 122°29'0 0.0
2018-Nov-04 14:59N 37°30' W 122°29'0 0.0
2018-Nov-04 14:29N 37°30' W 122°29'0 0.0
2018-Nov-04 14:02N 37°30' W 122°29'0 0.0
2018-Nov-04 13:59N 37°30' W 122°29'0 0.0
2018-Nov-04 13:29N 37°30' W 122°29'0 0.0
2018-Nov-04 13:02N 37°30' W 122°29'0 0.0
2018-Nov-04 12:59N 37°30' W 122°29'0 0.0
2018-Nov-04 12:29N 37°30' W 122°29'0 0.0
2018-Nov-04 12:02N 37°30' W 122°29'0 0.0
2018-Nov-04 11:59N 37°30' W 122°29'0 0.0
2018-Nov-04 11:29N 37°30' W 122°29'0 0.0
2018-Nov-04 11:02N 37°30' W 122°29'0 0.0
2018-Nov-04 10:59N 37°30' W 122°29'0 0.0
2018-Nov-04 10:29N 37°30' W 122°29'0 0.0
2018-Nov-04 10:02N 37°30' W 122°29'0 0.0
2018-Nov-04 09:59N 37°30' W 122°29'0 0.0
2018-Nov-04 09:29N 37°30' W 122°29'0 0.0
2018-Nov-04 09:02N 37°30' W 122°29'0 0.0
2018-Nov-04 08:59N 37°30' W 122°29'0 0.0
2018-Nov-04 08:29N 37°30' W 122°29'0 0.0
2018-Nov-04 08:02N 37°30' W 122°29'0 0.0
2018-Nov-04 07:59N 37°30' W 122°29'0 0.0
2018-Nov-04 07:29N 37°30' W 122°29'0 0.0
2018-Nov-04 07:02N 37°30' W 122°29'0 0.0
2018-Nov-04 06:59N 37°30' W 122°29'0 0.0
2018-Nov-04 06:29N 37°30' W 122°29'0 0.0
2018-Nov-04 06:02N 37°30' W 122°29'0 0.0
2018-Nov-04 05:59N 37°30' W 122°29'0 0.0
2018-Nov-04 05:29N 37°30' W 122°29'0 0.0
2018-Nov-04 05:02N 37°30' W 122°29'0 0.0
2018-Nov-04 04:59N 37°30' W 122°29'0 0.0
2018-Nov-04 04:29N 37°30' W 122°29'0 0.0
2018-Nov-04 04:03N 37°30' W 122°29'0 0.0
2018-Nov-04 04:00N 37°30' W 122°29'0 0.0
2018-Nov-04 03:30N 37°30' W 122°29'0 0.0
2018-Nov-04 03:03N 37°30' W 122°29'0 0.0
2018-Nov-04 03:00N 37°30' W 122°29'0 0.0
2018-Nov-04 02:30N 37°30' W 122°29'0 0.0
2018-Nov-04 02:03N 37°30' W 122°29'0 0.0
2018-Nov-04 02:00N 37°30' W 122°29'0 0.0
2018-Nov-04 01:30N 37°30' W 122°29'0 0.0
2018-Nov-04 01:03N 37°30' W 122°29'0 0.0
2018-Nov-04 01:00N 37°30' W 122°29'0 0.0
2018-Nov-04 00:30N 37°30' W 122°29'0 0.0
2018-Nov-04 00:03N 37°30' W 122°29'0 0.0
2018-Nov-04 00:00N 37°30' W 122°29'0 0.0
2018-Nov-03 23:30N 37°30' W 122°29'0 0.0
2018-Nov-03 23:03N 37°30' W 122°29'0 2.1
2018-Nov-03 23:00N 37°30' W 122°29'1 2.4
2018-Nov-03 22:30N 37°29' W 122°29'1 0.6
2018-Nov-03 20:30N 37°30' W 122°29'0 0.0
2018-Nov-03 20:03N 37°30' W 122°29'0 0.0
2018-Nov-03 20:00N 37°30' W 122°29'0 0.0
2018-Nov-03 19:29N 37°30' W 122°29'0 0.0
2018-Nov-03 19:02N 37°30' W 122°29'0 0.0
2018-Nov-03 18:59N 37°30' W 122°29'0 0.0
2018-Nov-03 18:28N 37°30' W 122°29'0 0.0
2018-Nov-03 18:01N 37°30' W 122°29'0 0.0
2018-Nov-03 17:58N 37°30' W 122°29'0 0.0
2018-Nov-03 17:28N 37°30' W 122°29'0 0.0
2018-Nov-03 17:01N 37°30' W 122°29'0 0.0
2018-Nov-03 16:58N 37°30' W 122°29'0 0.0
2018-Nov-03 16:28N 37°30' W 122°29'0 0.0
2018-Nov-03 16:01N 37°30' W 122°29'0 0.0
2018-Nov-03 15:58N 37°30' W 122°29'0 0.0
2018-Nov-03 15:28N 37°30' W 122°29'0 0.0
2018-Nov-03 15:01N 37°30' W 122°29'0 0.0
2018-Nov-03 14:58N 37°30' W 122°29'0 0.0
2018-Nov-03 14:28N 37°30' W 122°29'0 0.0
2018-Nov-03 14:01N 37°30' W 122°29'0 0.0
2018-Nov-03 13:58N 37°30' W 122°29'0 0.0
2018-Nov-03 13:28N 37°30' W 122°29'0 0.0
2018-Nov-03 13:01N 37°30' W 122°29'0 0.0
2018-Nov-03 12:58N 37°30' W 122°29'0 0.0
2018-Nov-03 12:28N 37°30' W 122°29'0 0.0
2018-Nov-03 12:01N 37°30' W 122°29'0 0.0
2018-Nov-03 11:58N 37°30' W 122°29'0 0.0
2018-Nov-03 11:28N 37°30' W 122°29'0 0.0
2018-Nov-03 11:01N 37°30' W 122°29'0 0.0
2018-Nov-03 10:58N 37°30' W 122°29'0 0.0
2018-Nov-03 10:28N 37°30' W 122°29'0 0.0
2018-Nov-03 10:01N 37°30' W 122°29'0 0.0
2018-Nov-03 09:58N 37°30' W 122°29'0 0.0
2018-Nov-03 09:28N 37°30' W 122°29'0 0.0
2018-Nov-03 09:01N 37°30' W 122°29'0 0.0
2018-Nov-03 08:58N 37°30' W 122°29'0 0.0
2018-Nov-03 08:28N 37°30' W 122°29'0 0.0
2018-Nov-03 08:01N 37°30' W 122°29'0 0.0
2018-Nov-03 07:58N 37°30' W 122°29'0 0.0
2018-Nov-03 07:28N 37°30' W 122°29'0 0.0
2018-Nov-03 07:01N 37°30' W 122°29'0 0.0
2018-Nov-03 06:58N 37°30' W 122°29'0 0.0
2018-Nov-03 06:28N 37°30' W 122°29'0 0.0
2018-Nov-03 06:01N 37°30' W 122°29'0 0.0
2018-Nov-03 05:58N 37°30' W 122°29'0 0.0
2018-Nov-03 05:28N 37°30' W 122°29'0 0.0
2018-Nov-03 05:01N 37°30' W 122°29'0 0.0
2018-Nov-03 04:58N 37°30' W 122°29'0 0.0
2018-Nov-03 04:28N 37°30' W 122°29'0 0.0
2018-Nov-03 04:04N 37°30' W 122°29'0 0.0
2018-Nov-03 03:58N 37°30' W 122°29'0 0.0
2018-Nov-03 03:28N 37°30' W 122°29'0 0.0
2018-Nov-03 03:01N 37°30' W 122°29'0 0.0
2018-Nov-03 02:58N 37°30' W 122°29'0 0.0
2018-Nov-03 02:28N 37°30' W 122°29'0 0.0
2018-Nov-03 02:01N 37°30' W 122°29'0 0.0
2018-Nov-03 01:58N 37°30' W 122°29'0 0.0
2018-Nov-03 01:28N 37°30' W 122°29'0 0.0
2018-Nov-03 01:01N 37°30' W 122°29'0 0.0
2018-Nov-03 00:58N 37°30' W 122°29'0 0.0
2018-Nov-03 00:28N 37°30' W 122°29'0 0.0
2018-Nov-03 00:02N 37°30' W 122°29'0 0.0
2018-Nov-02 23:59N 37°30' W 122°29'0 0.0
2018-Nov-02 23:29N 37°30' W 122°29'0 0.0
2018-Nov-02 23:02N 37°30' W 122°29'0 0.0
2018-Nov-02 22:59N 37°30' W 122°29'0 0.0
2018-Nov-02 22:29N 37°30' W 122°29'0 0.0
2018-Nov-02 21:59N 37°30' W 122°29'0 0.0
2018-Nov-02 21:29N 37°30' W 122°29'0 0.0
2018-Nov-02 21:02N 37°30' W 122°29'0 0.0
2018-Nov-02 20:59N 37°30' W 122°29'0 0.0
2018-Nov-02 20:29N 37°30' W 122°29'0 0.0
2018-Nov-02 20:02N 37°30' W 122°29'0 0.0
2018-Nov-02 19:59N 37°30' W 122°29'0 0.0
2018-Nov-02 19:29N 37°30' W 122°29'0 0.0
2018-Nov-02 19:02N 37°30' W 122°29'0 0.0
2018-Nov-02 18:59N 37°30' W 122°29'0 0.0
2018-Nov-02 18:30N 37°30' W 122°29'0 0.0
2018-Nov-02 18:03N 37°30' W 122°29'0 0.0
2018-Nov-02 18:00N 37°30' W 122°29'0 0.0
2018-Nov-02 17:29N 37°30' W 122°29'0 0.0
2018-Nov-02 17:02N 37°30' W 122°29'0 0.0
2018-Nov-02 16:59N 37°30' W 122°29'0 0.0
2018-Nov-02 16:27N 37°30' W 122°29'0 0.0
2018-Nov-02 16:03N 37°30' W 122°29'0 0.0
2018-Nov-02 16:00N 37°30' W 122°29'0 0.0
2018-Nov-02 15:30N 37°30' W 122°29'0 0.0
2018-Nov-02 15:03N 37°30' W 122°29'0 0.0
2018-Nov-02 15:00N 37°30' W 122°29'0 0.0
2018-Nov-02 14:30N 37°30' W 122°29'0 0.0
2018-Nov-02 14:00N 37°30' W 122°29'0 0.0
2018-Nov-02 13:30N 37°30' W 122°29'0 0.0
2018-Nov-02 13:03N 37°30' W 122°29'0 0.0
2018-Nov-02 13:00N 37°30' W 122°29'0 0.0
2018-Nov-02 12:30N 37°30' W 122°29'0 0.0
2018-Nov-02 12:03N 37°30' W 122°29'0 0.0
2018-Nov-02 12:00N 37°30' W 122°29'0 0.0
2018-Nov-02 11:30N 37°30' W 122°29'0 0.0
2018-Nov-02 11:03N 37°30' W 122°29'0 0.0
2018-Nov-02 11:00N 37°30' W 122°29'0 0.0
2018-Nov-02 10:30N 37°30' W 122°29'0 0.0
2018-Nov-02 10:03N 37°30' W 122°29'0 0.0
2018-Nov-02 10:00N 37°30' W 122°29'0 0.0
2018-Nov-02 09:30N 37°30' W 122°29'0 0.0
2018-Nov-02 09:03N 37°30' W 122°29'0 0.0
2018-Nov-02 09:00N 37°30' W 122°29'0 0.0
2018-Nov-02 08:30N 37°30' W 122°29'0 0.0
2018-Nov-02 08:03N 37°30' W 122°29'0 0.0
2018-Nov-02 08:00N 37°30' W 122°29'0 0.0
2018-Nov-02 07:30N 37°30' W 122°29'0 0.0
2018-Nov-02 07:03N 37°30' W 122°29'0 0.0
2018-Nov-02 07:00N 37°30' W 122°29'0 0.0
2018-Nov-02 06:30N 37°30' W 122°29'0 0.0
2018-Nov-02 06:03N 37°30' W 122°29'0 0.0
2018-Nov-02 06:00N 37°30' W 122°29'0 0.0
2018-Nov-02 05:30N 37°30' W 122°29'0 0.0
2018-Nov-02 05:03N 37°30' W 122°29'0 0.0
2018-Nov-02 05:00N 37°30' W 122°29'0 0.0
2018-Nov-02 04:30N 37°30' W 122°29'0 0.0
2018-Nov-02 04:03N 37°30' W 122°29'0 0.0
2018-Nov-02 04:00N 37°30' W 122°29'0 0.0
2018-Nov-02 03:30N 37°30' W 122°29'0 0.0
2018-Nov-02 03:03N 37°30' W 122°29'0 0.0
2018-Nov-02 03:00N 37°30' W 122°29'0 0.0
2018-Nov-02 02:30N 37°30' W 122°29'0 0.0
2018-Nov-02 02:03N 37°30' W 122°29'0 0.0
2018-Nov-02 02:00N 37°30' W 122°29'0 0.0
2018-Nov-02 01:30N 37°30' W 122°29'0 0.0
2018-Nov-02 01:03N 37°30' W 122°29'0 0.0
2018-Nov-02 01:00N 37°30' W 122°29'0 0.0
2018-Nov-02 00:54N 37°30' W 122°29'0 0.0
2018-Nov-02 00:36N 37°30' W 122°29'0 0.0
2018-Nov-02 00:27N 37°30' W 122°29'0 0.0
2018-Nov-02 00:00N 37°30' W 122°29'0 0.0
2018-Nov-01 23:30N 37°30' W 122°29'0 0.0
2018-Nov-01 23:03N 37°30' W 122°29'0 0.0
2018-Nov-01 23:00N 37°30' W 122°29'0 0.0
2018-Nov-01 22:30N 37°30' W 122°29'1 2.0
2018-Nov-01 22:03N 37°29' W 122°29'0 3.0
2018-Nov-01 22:00N 37°29' W 122°29'2 3.9
2018-Nov-01 21:30N 37°28' W 122°30'0 0.8
2018-Nov-01 21:03N 37°27' W 122°31'0 2.8
2018-Nov-01 21:00N 37°27' W 122°31'1 2.9
2018-Nov-01 20:30N 37°28' W 122°29'1 3.1
2018-Nov-01 20:02N 37°30' W 122°29'0 0.4
2018-Nov-01 19:59N 37°30' W 122°29'0 0.6
2018-Nov-01 19:29N 37°30' W 122°29'0 0.0
2018-Nov-01 19:02N 37°30' W 122°29'0 0.0
2018-Nov-01 18:59N 37°30' W 122°29'0 0.0
2018-Nov-01 18:29N 37°30' W 122°29'0 0.0
2018-Nov-01 18:02N 37°30' W 122°29'0 0.0
2018-Nov-01 17:59N 37°30' W 122°29'0 0.0
2018-Nov-01 17:29N 37°30' W 122°29'0 0.0
2018-Nov-01 17:02N 37°30' W 122°29'0 0.0
2018-Nov-01 16:59N 37°30' W 122°29'0 0.0
2018-Nov-01 16:29N 37°30' W 122°29'0 0.0
2018-Nov-01 16:02N 37°30' W 122°29'0 0.0
2018-Nov-01 15:59N 37°30' W 122°29'0 0.0
2018-Nov-01 15:29N 37°30' W 122°29'0 0.0
2018-Nov-01 15:02N 37°30' W 122°29'0 0.0
2018-Nov-01 14:59N 37°30' W 122°29'0 0.0
2018-Nov-01 14:29N 37°30' W 122°29'0 0.0
2018-Nov-01 13:59N 37°30' W 122°29'0 0.0
2018-Nov-01 13:29N 37°30' W 122°29'0 0.0
2018-Nov-01 13:02N 37°30' W 122°29'0 0.0
2018-Nov-01 12:59N 37°30' W 122°29'0 0.0
2018-Nov-01 12:29N 37°30' W 122°29'0 0.0
2018-Nov-01 12:02N 37°30' W 122°29'0 0.0
2018-Nov-01 11:59N 37°30' W 122°29'0 0.0
2018-Nov-01 11:29N 37°30' W 122°29'0 0.0
2018-Nov-01 11:02N 37°30' W 122°29'0 0.0
2018-Nov-01 10:59N 37°30' W 122°29'0 0.0
2018-Nov-01 10:29N 37°30' W 122°29'0 0.0
2018-Nov-01 10:02N 37°30' W 122°29'0 0.0
2018-Nov-01 09:59N 37°30' W 122°29'0 0.0
2018-Nov-01 09:29N 37°30' W 122°29'0 0.0
2018-Nov-01 09:02N 37°30' W 122°29'0 0.0
2018-Nov-01 08:59N 37°30' W 122°29'0 0.0
2018-Nov-01 08:29N 37°30' W 122°29'0 0.0
2018-Nov-01 08:02N 37°30' W 122°29'0 0.0
2018-Nov-01 07:59N 37°30' W 122°29'0 0.0
2018-Nov-01 07:29N 37°30' W 122°29'0 0.0
2018-Nov-01 07:02N 37°30' W 122°29'0 0.0
2018-Nov-01 06:59N 37°30' W 122°29'0 0.0
2018-Nov-01 06:29N 37°30' W 122°29'0 0.0
2018-Nov-01 06:02N 37°30' W 122°29'0 0.0
2018-Nov-01 05:59N 37°30' W 122°29'0 0.0
2018-Nov-01 05:29N 37°30' W 122°29'0 0.0
2018-Nov-01 05:02N 37°30' W 122°29'0 0.0
2018-Nov-01 04:59N 37°30' W 122°29'0 0.0
2018-Nov-01 04:29N 37°30' W 122°29'0 0.0
2018-Nov-01 04:02N 37°30' W 122°29'0 0.0
2018-Nov-01 03:59N 37°30' W 122°29'0 0.0
2018-Nov-01 03:29N 37°30' W 122°29'0 0.0
2018-Nov-01 03:02N 37°30' W 122°29'0 0.0
2018-Nov-01 02:59N 37°30' W 122°29'0 0.0
2018-Nov-01 02:29N 37°30' W 122°29'0 0.0
2018-Nov-01 02:02N 37°30' W 122°29'0 0.0
2018-Nov-01 01:59N 37°30' W 122°29'0 0.0
2018-Nov-01 01:29N 37°30' W 122°29'0 0.0
2018-Nov-01 01:02N 37°30' W 122°29'0 0.0
2018-Nov-01 00:59N 37°30' W 122°29'0 0.0
2018-Nov-01 00:29N 37°30' W 122°29'0 0.0
2018-Nov-01 00:02N 37°30' W 122°29'0 0.0
2018-Oct-31 23:59N 37°30' W 122°29'0 0.0
2018-Oct-31 23:29N 37°30' W 122°29'0 0.0
2018-Oct-31 23:02N 37°30' W 122°29'0 0.0
2018-Oct-31 22:59N 37°30' W 122°29'0 0.0
2018-Oct-31 22:29N 37°30' W 122°29'0 0.0
2018-Oct-31 22:02N 37°30' W 122°29'0 0.0
2018-Oct-31 21:59N 37°30' W 122°29'0 0.0
2018-Oct-31 21:29N 37°30' W 122°29'0 0.0
2018-Oct-31 21:02N 37°30' W 122°29'0 0.0
2018-Oct-31 20:59N 37°30' W 122°29'0 0.0
2018-Oct-31 20:29N 37°30' W 122°29'0 0.0
2018-Oct-31 20:02N 37°30' W 122°29'0 0.0
2018-Oct-31 19:59N 37°30' W 122°29'0 0.0
2018-Oct-31 19:29N 37°30' W 122°29'0 0.0
2018-Oct-31 19:02N 37°30' W 122°29'0 0.0
2018-Oct-31 18:59N 37°30' W 122°29'0 0.0
2018-Oct-31 18:29N 37°30' W 122°29'0 0.2
2018-Oct-31 18:04N 37°30' W 122°29'0 1.9
2018-Oct-31 18:00N 37°30' W 122°29'2 3.3
2018-Oct-31 17:30N 37°29' W 122°28'2 3.4
2018-Oct-31 17:03N 37°30' W 122°29'0 0.7
2018-Oct-31 16:58N 37°30' W 122°29'0 0.8
2018-Oct-31 16:28N 37°30' W 122°29'0 0.0
2018-Oct-31 16:01N 37°30' W 122°29'0 0.0
2018-Oct-31 15:58N 37°30' W 122°29'0 0.0
2018-Oct-31 15:28N 37°30' W 122°29'0 0.0
2018-Oct-31 15:01N 37°30' W 122°29'0 0.0
2018-Oct-31 14:58N 37°30' W 122°29'0 0.0
2018-Oct-31 14:01N 37°30' W 122°29'0 0.0
2018-Oct-31 13:58N 37°30' W 122°29'0 0.0
2018-Oct-31 13:28N 37°30' W 122°29'0 0.0
2018-Oct-31 13:01N 37°30' W 122°29'0 0.0
2018-Oct-31 12:58N 37°30' W 122°29'0 0.0
2018-Oct-31 12:28N 37°30' W 122°29'0 0.0
2018-Oct-31 12:01N 37°30' W 122°29'0 0.0
2018-Oct-31 11:58N 37°30' W 122°29'0 0.0
2018-Oct-31 11:28N 37°30' W 122°29'0 0.0
2018-Oct-31 10:58N 37°30' W 122°29'0 0.0
2018-Oct-31 10:28N 37°30' W 122°29'0 0.0
2018-Oct-31 10:01N 37°30' W 122°29'0 0.0
2018-Oct-31 09:58N 37°30' W 122°29'0 0.0
2018-Oct-31 09:28N 37°30' W 122°29'0 0.0
2018-Oct-31 09:01N 37°30' W 122°29'0 0.0
2018-Oct-31 08:58N 37°30' W 122°29'0 0.0
2018-Oct-31 08:28N 37°30' W 122°29'0 0.0
2018-Oct-31 08:01N 37°30' W 122°29'0 0.0
2018-Oct-31 07:58N 37°30' W 122°29'0 0.0
2018-Oct-31 07:28N 37°30' W 122°29'0 0.0
2018-Oct-31 07:01N 37°30' W 122°29'0 0.0
2018-Oct-31 06:58N 37°30' W 122°29'0 0.0
2018-Oct-31 06:28N 37°30' W 122°29'0 0.0
2018-Oct-31 06:01N 37°30' W 122°29'0 0.0
2018-Oct-31 05:58N 37°30' W 122°29'0 0.0
2018-Oct-31 05:28N 37°30' W 122°29'0 0.0
2018-Oct-31 05:01N 37°30' W 122°29'0 0.0
2018-Oct-31 04:58N 37°30' W 122°29'0 0.0
2018-Oct-31 04:28N 37°30' W 122°29'0 0.0
2018-Oct-31 04:01N 37°30' W 122°29'0 0.0
2018-Oct-31 03:58N 37°30' W 122°29'0 0.0
2018-Oct-31 03:28N 37°30' W 122°29'0 0.0
2018-Oct-31 03:01N 37°30' W 122°29'0 0.0
2018-Oct-31 02:58N 37°30' W 122°29'0 0.0
2018-Oct-31 02:28N 37°30' W 122°29'0 0.0
2018-Oct-31 02:01N 37°30' W 122°29'0 0.0
2018-Oct-31 01:58N 37°30' W 122°29'0 0.0
2018-Oct-31 01:28N 37°30' W 122°29'0 0.0
2018-Oct-31 01:01N 37°30' W 122°29'0 0.0
2018-Oct-31 00:58N 37°30' W 122°29'0 0.0
2018-Oct-31 00:28N 37°30' W 122°29'0 0.0
2018-Oct-31 00:01N 37°30' W 122°29'0 0.0
2018-Oct-30 23:58N 37°30' W 122°29'0 0.0
2018-Oct-30 23:28N 37°30' W 122°29'0 0.0
2018-Oct-30 23:01N 37°30' W 122°29'0 0.0
2018-Oct-30 22:58N 37°30' W 122°29'0 0.0
2018-Oct-30 22:28N 37°30' W 122°29'0 0.0
2018-Oct-30 22:01N 37°30' W 122°29'0 0.0
2018-Oct-30 21:58N 37°30' W 122°29'0 0.0
2018-Oct-30 21:28N 37°30' W 122°29'0 0.0
2018-Oct-30 21:01N 37°30' W 122°29'0 0.0
2018-Oct-30 20:58N 37°30' W 122°29'0 0.0
2018-Oct-30 20:28N 37°30' W 122°29'0 0.0
2018-Oct-30 20:01N 37°30' W 122°29'0 0.0
2018-Oct-30 19:58N 37°30' W 122°29'0 0.0
2018-Oct-30 19:28N 37°30' W 122°29'0 0.0
2018-Oct-30 19:01N 37°30' W 122°29'0 0.0
2018-Oct-30 18:58N 37°30' W 122°29'1 2.8
2018-Oct-30 18:30N 37°29' W 122°29'0 0.5
2018-Oct-30 18:03N 37°29' W 122°29'0 3.6
2018-Oct-30 18:00N 37°29' W 122°29'1 1.6
2018-Oct-30 17:28N 37°30' W 122°29'0 0.0
2018-Oct-30 17:01N 37°30' W 122°29'0 0.0
2018-Oct-30 16:58N 37°30' W 122°29'0 0.0
2018-Oct-30 16:28N 37°30' W 122°29'0 0.0
2018-Oct-30 16:01N 37°30' W 122°29'0 0.0
2018-Oct-30 15:58N 37°30' W 122°29'0 0.0
2018-Oct-30 15:28N 37°30' W 122°29'0 0.0
2018-Oct-30 15:01N 37°30' W 122°29'0 0.0
2018-Oct-30 14:58N 37°30' W 122°29'0 0.0
2018-Oct-30 14:01N 37°30' W 122°29'0 0.0
2018-Oct-30 13:28N 37°30' W 122°29'0 0.0
2018-Oct-30 13:01N 37°30' W 122°29'0 0.0
2018-Oct-30 12:58N 37°30' W 122°29'0 0.0
2018-Oct-30 12:28N 37°30' W 122°29'0 0.0
2018-Oct-30 12:01N 37°30' W 122°29'0 0.0
2018-Oct-30 11:58N 37°30' W 122°29'0 0.0
2018-Oct-30 11:28N 37°30' W 122°29'0 0.0
2018-Oct-30 11:01N 37°30' W 122°29'0 0.0
2018-Oct-30 10:58N 37°30' W 122°29'0 0.0
2018-Oct-30 10:25N 37°30' W 122°29'0 0.0
2018-Oct-30 10:03N 37°30' W 122°29'0 0.0
2018-Oct-30 10:00N 37°30' W 122°29'0 0.0
2018-Oct-30 09:30N 37°30' W 122°29'0 0.0
2018-Oct-30 09:03N 37°30' W 122°29'0 0.0
2018-Oct-30 09:00N 37°30' W 122°29'0 0.0
2018-Oct-30 08:30N 37°30' W 122°29'0 0.0
2018-Oct-30 08:03N 37°30' W 122°29'0 0.0
2018-Oct-30 08:00N 37°30' W 122°29'0 0.0
2018-Oct-30 07:30N 37°30' W 122°29'0 0.0
2018-Oct-30 07:03N 37°30' W 122°29'0 0.0
2018-Oct-30 07:00N 37°30' W 122°29'0 0.0
2018-Oct-30 06:30N 37°30' W 122°29'0 0.0
2018-Oct-30 06:03N 37°30' W 122°29'0 0.0
2018-Oct-30 06:00N 37°30' W 122°29'0 0.0
2018-Oct-30 05:30N 37°30' W 122°29'0 0.0
2018-Oct-30 05:03N 37°30' W 122°29'0 0.0
2018-Oct-30 05:00N 37°30' W 122°29'0 0.0
2018-Oct-30 04:30N 37°30' W 122°29'0 0.0
2018-Oct-30 04:03N 37°30' W 122°29'0 0.0
2018-Oct-30 04:00N 37°30' W 122°29'0 0.0
2018-Oct-30 03:30N 37°30' W 122°29'0 0.0
2018-Oct-30 03:03N 37°30' W 122°29'0 0.0
2018-Oct-30 03:00N 37°30' W 122°29'0 0.0
2018-Oct-30 02:30N 37°30' W 122°29'0 0.0
2018-Oct-30 02:03N 37°30' W 122°29'0 0.0
2018-Oct-30 02:00N 37°30' W 122°29'0 0.0
2018-Oct-30 01:30N 37°30' W 122°29'0 0.0
2018-Oct-30 01:03N 37°30' W 122°29'0 0.0
2018-Oct-30 01:00N 37°30' W 122°29'0 0.0
2018-Oct-30 00:30N 37°30' W 122°29'0 0.0
2018-Oct-30 00:03N 37°30' W 122°29'0 0.0
2018-Oct-30 00:00N 37°30' W 122°29'0 0.0
2018-Oct-29 23:30N 37°30' W 122°29'0 0.0
2018-Oct-29 23:03N 37°30' W 122°29'0 0.0
2018-Oct-29 23:00N 37°30' W 122°29'0 0.0
2018-Oct-29 22:30N 37°30' W 122°29'0 0.0
2018-Oct-29 22:03N 37°30' W 122°29'0 0.0
2018-Oct-29 22:00N 37°30' W 122°29'0 0.0
2018-Oct-29 21:30N 37°30' W 122°29'0 0.0
2018-Oct-29 21:03N 37°30' W 122°29'0 0.0
2018-Oct-29 21:00N 37°30' W 122°29'0 0.0
2018-Oct-29 20:30N 37°30' W 122°29'0 0.0
2018-Oct-29 20:03N 37°30' W 122°29'0 0.0
2018-Oct-29 20:00N 37°30' W 122°29'0 0.0
2018-Oct-29 19:30N 37°30' W 122°29'0 0.0
2018-Oct-29 19:03N 37°30' W 122°29'0 0.0
2018-Oct-29 19:00N 37°30' W 122°29'0 0.0
2018-Oct-29 18:30N 37°30' W 122°29'0 0.0
2018-Oct-29 18:03N 37°30' W 122°29'0 0.0
2018-Oct-29 18:00N 37°30' W 122°29'0 0.0
2018-Oct-29 17:30N 37°30' W 122°29'0 0.0
2018-Oct-29 17:03N 37°30' W 122°29'0 0.0
2018-Oct-29 17:00N 37°30' W 122°29'0 0.0
2018-Oct-29 16:30N 37°30' W 122°29'0 0.0
2018-Oct-29 16:03N 37°30' W 122°29'0 0.0
2018-Oct-29 16:00N 37°30' W 122°29'0 0.0
2018-Oct-29 15:30N 37°30' W 122°29'0 0.0
2018-Oct-29 15:03N 37°30' W 122°29'0 0.0
2018-Oct-29 15:00N 37°30' W 122°29'0 0.0
2018-Oct-29 14:30N 37°30' W 122°29'0 0.0
2018-Oct-29 14:00N 37°30' W 122°29'0 0.0
2018-Oct-29 13:30N 37°30' W 122°29'0 0.0
2018-Oct-29 13:03N 37°30' W 122°29'0 0.0
2018-Oct-29 13:00N 37°30' W 122°29'0 0.0
2018-Oct-29 12:30N 37°30' W 122°29'0 0.0
2018-Oct-29 12:03N 37°30' W 122°29'0 0.0
2018-Oct-29 12:00N 37°30' W 122°29'0 0.0
2018-Oct-29 11:30N 37°30' W 122°29'0 0.0
2018-Oct-29 11:03N 37°30' W 122°29'0 0.0
2018-Oct-29 11:00N 37°30' W 122°29'0 0.0
2018-Oct-29 10:30N 37°30' W 122°29'0 0.0
2018-Oct-29 10:03N 37°30' W 122°29'0 0.0
2018-Oct-29 10:00N 37°30' W 122°29'0 0.0
2018-Oct-29 09:30N 37°30' W 122°29'0 0.0
2018-Oct-29 09:03N 37°30' W 122°29'0 0.0
2018-Oct-29 09:00N 37°30' W 122°29'0 0.0
2018-Oct-29 08:30N 37°30' W 122°29'0 0.0
2018-Oct-29 08:03N 37°30' W 122°29'0 0.0
2018-Oct-29 08:00N 37°30' W 122°29'0 0.0
2018-Oct-29 07:30N 37°30' W 122°29'0 0.0
2018-Oct-29 07:03N 37°30' W 122°29'0 0.0
2018-Oct-29 07:00N 37°30' W 122°29'0 0.0
2018-Oct-29 06:30N 37°30' W 122°29'0 0.0
2018-Oct-29 06:03N 37°30' W 122°29'0 0.0
2018-Oct-29 06:00N 37°30' W 122°29'0 0.0
2018-Oct-29 05:30N 37°30' W 122°29'0 0.0
2018-Oct-29 05:03N 37°30' W 122°29'0 0.0
2018-Oct-29 05:00N 37°30' W 122°29'0 0.0
2018-Oct-29 04:30N 37°30' W 122°29'0 0.0
2018-Oct-29 04:03N 37°30' W 122°29'0 0.0
2018-Oct-29 04:00N 37°30' W 122°29'0 0.0
2018-Oct-29 03:30N 37°30' W 122°29'0 0.0
2018-Oct-29 03:03N 37°30' W 122°29'0 0.0
2018-Oct-29 03:00N 37°30' W 122°29'0 0.0
2018-Oct-29 02:30N 37°30' W 122°29'0 0.0
2018-Oct-29 02:03N 37°30' W 122°29'0 0.0
2018-Oct-29 02:00N 37°30' W 122°29'0 0.0
2018-Oct-29 01:30N 37°30' W 122°29'0 0.0
2018-Oct-29 01:03N 37°30' W 122°29'0 0.0
2018-Oct-29 01:00N 37°30' W 122°29'0 0.0
2018-Oct-29 00:30N 37°30' W 122°29'0 0.0
2018-Oct-29 00:03N 37°30' W 122°29'0 0.0
2018-Oct-29 00:00N 37°30' W 122°29'0 0.0
2018-Oct-28 23:30N 37°30' W 122°29'0 0.1
2018-Oct-28 23:03N 37°30' W 122°29'0 2.3
2018-Oct-28 23:00N 37°30' W 122°29'1 2.5
2018-Oct-28 22:29N 37°29' W 122°29'1 1.7
2018-Oct-28 22:04N 37°28' W 122°29'0 3.0
2018-Oct-28 22:00N 37°28' W 122°30'2 3.5
2018-Oct-28 21:31N 37°30' W 122°29'0 0.9
2018-Oct-28 21:01N 37°30' W 122°29'0 0.0
2018-Oct-28 20:58N 37°30' W 122°29'0 0.0
2018-Oct-28 20:31N 37°30' W 122°29'0 0.0
2018-Oct-28 20:01N 37°30' W 122°29'0 0.0
2018-Oct-28 19:28N 37°30' W 122°29'0 0.0
2018-Oct-28 19:01N 37°30' W 122°29'0 0.0
2018-Oct-28 18:58N 37°30' W 122°29'0 0.0
2018-Oct-28 18:31N 37°30' W 122°29'0 0.0
2018-Oct-28 18:01N 37°30' W 122°29'0 0.0
2018-Oct-28 17:58N 37°30' W 122°29'0 0.0
2018-Oct-28 17:31N 37°30' W 122°29'0 0.0
2018-Oct-28 17:01N 37°30' W 122°29'0 0.0
2018-Oct-28 16:31N 37°30' W 122°29'0 0.0
2018-Oct-28 16:01N 37°30' W 122°29'0 0.0
2018-Oct-28 15:58N 37°30' W 122°29'0 0.0
2018-Oct-28 15:31N 37°30' W 122°29'0 0.0
2018-Oct-28 15:01N 37°30' W 122°29'0 0.1
2018-Oct-28 14:58N 37°30' W 122°29'0 0.0
2018-Oct-28 14:31N 37°30' W 122°29'0 0.0
2018-Oct-28 13:28N 37°30' W 122°29'0 0.0
2018-Oct-28 13:01N 37°30' W 122°29'0 0.0
2018-Oct-28 12:28N 37°30' W 122°29'0 0.0
2018-Oct-28 12:01N 37°30' W 122°29'0 0.0
2018-Oct-28 11:58N 37°30' W 122°29'0 0.0
2018-Oct-28 11:28N 37°30' W 122°29'0 0.0
2018-Oct-28 11:01N 37°30' W 122°29'0 0.0
2018-Oct-28 10:58N 37°30' W 122°29'0 0.0
2018-Oct-28 10:31N 37°30' W 122°29'0 0.0
2018-Oct-28 10:01N 37°30' W 122°29'0 0.0
2018-Oct-28 09:58N 37°30' W 122°29'0 0.0
2018-Oct-28 09:28N 37°30' W 122°29'0 0.0
2018-Oct-28 09:04N 37°30' W 122°29'0 0.0
2018-Oct-28 08:58N 37°30' W 122°29'  

Dump ship's entire track history